createdAt,value
2024-03-05T00:00:50.028Z,99923.53
2024-03-05T00:03:16.867Z,99920.19
2024-03-05T00:05:43.786Z,99920.19
2024-03-05T00:08:10.591Z,99928.88
2024-03-05T00:10:37.475Z,99921.22
2024-03-05T00:13:04.342Z,99925.69
2024-03-05T00:15:31.172Z,99928.22
2024-03-05T00:17:58.016Z,99927.88
2024-03-05T00:20:24.832Z,99931.53
2024-03-05T00:22:52.030Z,99924.53
2024-03-05T00:25:19.192Z,99915.50
2024-03-05T00:27:46.234Z,99918.34
2024-03-05T00:30:13.074Z,99916.69
2024-03-05T00:32:39.944Z,99919.19
2024-03-05T00:35:06.741Z,99917.53
2024-03-05T00:37:33.613Z,99912.50
2024-03-05T00:40:00.506Z,99918.34
2024-03-05T00:42:27.334Z,99924.88
2024-03-05T00:44:54.124Z,99924.03
2024-03-05T00:47:20.921Z,99919.88
2024-03-05T00:49:47.833Z,99932.22
2024-03-05T00:52:14.660Z,99914.19
2024-03-05T00:54:41.557Z,99922.22
2024-03-05T00:57:08.348Z,99922.53
2024-03-05T00:59:35.197Z,99915.53
2024-03-05T01:02:02.033Z,99926.22
2024-03-05T01:04:28.966Z,99921.41
2024-03-05T01:06:55.871Z,99907.69
2024-03-05T01:09:22.795Z,99917.88
2024-03-05T01:11:49.628Z,99922.41
2024-03-05T01:14:16.478Z,99924.41
2024-03-05T01:16:43.357Z,99921.91
2024-03-05T01:19:10.165Z,99922.41
2024-03-05T01:21:36.967Z,99923.56
2024-03-05T01:24:03.786Z,99915.41
2024-03-05T01:26:30.578Z,99913.53
2024-03-05T01:28:57.429Z,99916.19
2024-03-05T01:31:24.321Z,99915.50
2024-03-05T01:33:51.161Z,99924.19
2024-03-05T01:36:17.968Z,99925.84
2024-03-05T01:38:44.750Z,99927.88
2024-03-05T01:41:11.562Z,99929.53
2024-03-05T01:43:38.419Z,99931.19
2024-03-05T01:46:05.227Z,99932.03
2024-03-05T01:48:32.034Z,99931.84
2024-03-05T01:50:58.872Z,99937.91
2024-03-05T01:53:25.691Z,99937.19
2024-03-05T01:55:52.576Z,99938.53
2024-03-05T01:58:19.505Z,99943.88
2024-03-05T02:00:46.495Z,99943.88
2024-03-05T02:03:13.358Z,99935.84
2024-03-05T02:05:40.210Z,99941.16
2024-03-05T02:08:06.989Z,99943.53
2024-03-05T02:10:33.818Z,99946.84
2024-03-05T02:13:00.688Z,99948.50
2024-03-05T02:15:27.513Z,99948.16
2024-03-05T02:17:54.358Z,99948.81
2024-03-05T02:20:21.171Z,99943.09
2024-03-05T02:22:48.051Z,99946.44
2024-03-05T02:25:17.551Z,99946.09
2024-03-05T02:27:45.525Z,99948.25
2024-03-05T02:30:12.404Z,99952.06
2024-03-05T02:32:39.251Z,99952.44
2024-03-05T02:35:06.100Z,99966.09
2024-03-05T02:37:32.933Z,99964.09
2024-03-05T02:39:59.789Z,99967.75
2024-03-05T02:42:26.557Z,99966.41
2024-03-05T02:44:53.375Z,99971.13
2024-03-05T02:47:20.168Z,99977.47
2024-03-05T02:49:46.997Z,99971.13
2024-03-05T02:52:13.873Z,99973.13
2024-03-05T02:54:40.666Z,99966.09
2024-03-05T02:57:07.488Z,99969.09
2024-03-05T02:59:34.269Z,99973.59
2024-03-05T03:02:01.082Z,99972.41
2024-03-05T03:04:28.052Z,99972.09
2024-03-05T03:06:54.978Z,99980.78
2024-03-05T03:09:21.833Z,99976.72
2024-03-05T03:11:48.703Z,99987.13
2024-03-05T03:14:15.521Z,99989.44
2024-03-05T03:16:42.400Z,99999.84
2024-03-05T03:19:09.292Z,100005.19
2024-03-05T03:21:36.108Z,100017.88
2024-03-05T03:24:02.914Z,100022.56
2024-03-05T03:26:29.765Z,100016.88
2024-03-05T03:28:56.646Z,100002.50
2024-03-05T03:31:23.519Z,100011.50
2024-03-05T03:33:50.419Z,100013.53
2024-03-05T03:36:17.236Z,100023.22
2024-03-05T03:38:44.015Z,100007.84
2024-03-05T03:41:10.879Z,100000.81
2024-03-05T03:43:37.677Z,99996.78
2024-03-05T03:46:04.490Z,99987.75
2024-03-05T03:48:31.304Z,99998.44
2024-03-05T03:50:58.166Z,100000.47
2024-03-05T03:53:24.969Z,100002.13
2024-03-05T03:55:51.865Z,99996.38
2024-03-05T03:58:18.760Z,99997.41
2024-03-05T04:00:45.583Z,99996.38
2024-03-05T04:03:12.385Z,100009.53
2024-03-05T04:05:39.182Z,100004.78
2024-03-05T04:08:06.155Z,100001.09
2024-03-05T04:10:33.143Z,99999.53
2024-03-05T04:13:00.004Z,100005.75
2024-03-05T04:15:26.841Z,100001.53
2024-03-05T04:17:53.684Z,100006.34
2024-03-05T04:20:20.501Z,100005.88
2024-03-05T04:22:47.354Z,100008.38
2024-03-05T04:25:14.202Z,100024.06
2024-03-05T04:27:41.131Z,100029.44
2024-03-05T04:30:07.950Z,100028.94
2024-03-05T04:32:34.919Z,100026.09
2024-03-05T04:35:02.060Z,100040.50
2024-03-05T04:37:29.070Z,100036.81
2024-03-05T04:39:55.946Z,100052.50
2024-03-05T04:42:22.735Z,100050.84
2024-03-05T04:44:49.581Z,100058.72
2024-03-05T04:47:16.399Z,100061.94
2024-03-05T04:49:43.366Z,100064.91
2024-03-05T04:52:10.203Z,100066.22
2024-03-05T04:54:37.040Z,100083.97
2024-03-05T04:57:03.898Z,100089.97
2024-03-05T04:59:30.674Z,100087.78
2024-03-05T05:01:57.534Z,100093.13
2024-03-05T05:04:24.434Z,100083.25
2024-03-05T05:06:51.265Z,100086.47
2024-03-05T05:09:18.051Z,100088.25
2024-03-05T05:11:44.859Z,100085.28
2024-03-05T05:14:11.684Z,100084.66
2024-03-05T05:16:38.546Z,100075.28
2024-03-05T05:19:05.397Z,100081.59
2024-03-05T05:21:32.178Z,100079.56
2024-03-05T05:23:58.948Z,100073.56
2024-03-05T05:26:25.788Z,100083.25
2024-03-05T05:28:52.712Z,100081.22
2024-03-05T05:31:19.582Z,100089.91
2024-03-05T05:33:46.470Z,100080.91
2024-03-05T05:36:13.340Z,100080.91
2024-03-05T05:38:40.116Z,100094.94
2024-03-05T05:41:07.019Z,100092.78
2024-03-05T05:43:33.985Z,100102.34
2024-03-05T05:46:00.839Z,100109.16
2024-03-05T05:48:29.741Z,100111.00
2024-03-05T05:50:56.985Z,100107.69
2024-03-05T05:53:23.778Z,100117.44
2024-03-05T05:55:50.603Z,100132.16
2024-03-05T05:58:17.404Z,100142.38
2024-03-05T06:00:44.193Z,100145.94
2024-03-05T06:03:10.967Z,100151.00
2024-03-05T06:05:37.842Z,100149.88
2024-03-05T06:08:04.949Z,100159.97
2024-03-05T06:10:32.034Z,100158.31
2024-03-05T06:13:00.046Z,100152.16
2024-03-05T06:15:26.862Z,100158.63
2024-03-05T06:17:53.761Z,100172.28
2024-03-05T06:20:20.819Z,100171.00
2024-03-05T06:22:47.741Z,100174.19
2024-03-05T06:25:14.729Z,100172.69
2024-03-05T06:27:41.553Z,100158.66
2024-03-05T06:30:08.380Z,100155.13
2024-03-05T06:32:35.256Z,100150.59
2024-03-05T06:35:02.142Z,100163.31
2024-03-05T06:37:29.034Z,100156.66
2024-03-05T06:39:55.836Z,100159.13
2024-03-05T06:42:22.603Z,100156.66
2024-03-05T06:44:49.432Z,100155.31
2024-03-05T06:47:16.245Z,100159.66
2024-03-05T06:49:43.096Z,100161.16
2024-03-05T06:52:09.950Z,100164.50
2024-03-05T06:54:36.784Z,100168.66
2024-03-05T06:57:03.618Z,100174.03
2024-03-05T06:59:30.416Z,100176.03
2024-03-05T07:01:57.322Z,100180.72
2024-03-05T07:04:24.229Z,100177.38
2024-03-05T07:06:51.055Z,100181.72
2024-03-05T07:09:17.913Z,100176.66
2024-03-05T07:11:44.759Z,100175.38
2024-03-05T07:14:11.719Z,100171.69
2024-03-05T07:16:38.581Z,100179.34
2024-03-05T07:19:05.383Z,100189.06
2024-03-05T07:21:32.209Z,100197.78
2024-03-05T07:23:58.984Z,100200.75
2024-03-05T07:26:25.834Z,100204.44
2024-03-05T07:28:52.633Z,100207.31
2024-03-05T07:31:20.070Z,100210.97
2024-03-05T07:33:49.964Z,100224.56
2024-03-05T07:36:19.572Z,100219.53
2024-03-05T07:38:46.427Z,100214.16
2024-03-05T07:41:21.558Z,100219.19
2024-03-05T07:43:53.718Z,100219.69
2024-03-05T07:46:20.713Z,100232.59
2024-03-05T07:48:47.619Z,100245.63
2024-03-05T07:51:21.411Z,100244.81
2024-03-05T07:53:51.837Z,100248.97
2024-03-05T07:56:18.831Z,100254.00
2024-03-05T07:58:45.831Z,100264.72
2024-03-05T08:01:12.860Z,100277.91
2024-03-05T08:03:39.776Z,100281.59
2024-03-05T08:06:06.621Z,100294.16
2024-03-05T08:08:33.418Z,100308.56
2024-03-05T08:11:00.277Z,100322.28
2024-03-05T08:13:27.210Z,100328.31
2024-03-05T08:15:54.067Z,100330.00
2024-03-05T08:18:20.928Z,100334.66
2024-03-05T08:20:47.784Z,100336.69
2024-03-05T08:23:14.646Z,100330.97
2024-03-05T08:25:42.720Z,100327.31
2024-03-05T08:28:10.591Z,100329.00
2024-03-05T08:30:37.381Z,100332.31
2024-03-05T08:33:04.296Z,100337.69
2024-03-05T08:35:31.286Z,100346.72
2024-03-05T08:37:58.222Z,100349.75
2024-03-05T08:40:25.143Z,100345.56
2024-03-05T08:42:51.966Z,100358.75
2024-03-05T08:45:18.821Z,100367.00
2024-03-05T08:47:45.642Z,100363.47
2024-03-05T08:50:12.475Z,100359.47
2024-03-05T08:52:39.356Z,100359.13
2024-03-05T08:55:06.177Z,100346.38
2024-03-05T08:57:32.953Z,100345.88
2024-03-05T09:00:00.900Z,100346.38
2024-03-05T09:02:29.950Z,100340.38
2024-03-05T09:04:56.794Z,100341.22
2024-03-05T09:07:23.664Z,100343.41
2024-03-05T09:09:50.465Z,100333.00
2024-03-05T09:12:17.256Z,100352.41
2024-03-05T09:14:44.365Z,100343.03
2024-03-05T09:17:11.271Z,100345.88
2024-03-05T09:19:38.184Z,100338.34
2024-03-05T09:22:05.000Z,100348.06
2024-03-05T09:24:31.842Z,100349.06
2024-03-05T09:26:58.646Z,100345.72
2024-03-05T09:29:25.436Z,100356.09
2024-03-05T09:31:52.233Z,100346.22
2024-03-05T09:34:19.053Z,100342.03
2024-03-05T09:36:45.880Z,100339.53
2024-03-05T09:39:12.659Z,100336.00
2024-03-05T09:41:39.451Z,100345.38
2024-03-05T09:44:06.331Z,100337.19
2024-03-05T09:46:33.172Z,100344.06
2024-03-05T09:49:07.413Z,100359.13
2024-03-05T09:51:38.175Z,100370.50
2024-03-05T09:54:05.042Z,100375.69
2024-03-05T09:56:34.713Z,100385.56
2024-03-05T09:59:03.021Z,100385.56
2024-03-05T10:01:29.858Z,100392.78
2024-03-05T10:03:56.681Z,100395.25
2024-03-05T10:06:23.458Z,100392.78
2024-03-05T10:08:50.272Z,100412.53
2024-03-05T10:11:17.220Z,100410.00
2024-03-05T10:13:44.244Z,100414.34
2024-03-05T10:16:11.094Z,100415.34
2024-03-05T10:18:37.887Z,100414.69
2024-03-05T10:21:04.740Z,100416.00
2024-03-05T10:23:31.553Z,100429.03
2024-03-05T10:25:58.386Z,100414.34
2024-03-05T10:28:25.237Z,100416.00
2024-03-05T10:30:52.128Z,100424.03
2024-03-05T10:33:18.909Z,100427.06
2024-03-05T10:35:45.736Z,100425.69
2024-03-05T10:38:12.558Z,100425.69
2024-03-05T10:40:39.854Z,100430.00
2024-03-05T10:43:06.779Z,100432.50
2024-03-05T10:45:34.172Z,100432.19
2024-03-05T10:48:01.032Z,100443.75
2024-03-05T10:50:27.995Z,100438.72
2024-03-05T10:52:54.876Z,100443.03
2024-03-05T10:55:21.724Z,100440.84
2024-03-05T10:57:48.519Z,100440.66
2024-03-05T11:00:15.342Z,100453.38
2024-03-05T11:02:42.169Z,100451.88
2024-03-05T11:05:09.118Z,100449.34
2024-03-05T11:07:36.044Z,100456.41
2024-03-05T11:10:02.915Z,100452.72
2024-03-05T11:12:29.714Z,100450.00
2024-03-05T11:14:56.931Z,100452.00
2024-03-05T11:17:23.938Z,100459.03
2024-03-05T11:19:50.785Z,100462.06
2024-03-05T11:22:17.708Z,100455.03
2024-03-05T11:24:44.525Z,100459.75
2024-03-05T11:27:11.367Z,100461.41
2024-03-05T11:29:38.258Z,100458.06
2024-03-05T11:32:05.253Z,100453.38
2024-03-05T11:34:32.153Z,100453.88
2024-03-05T11:36:58.999Z,100443.69
2024-03-05T11:39:25.818Z,100440.00
2024-03-05T11:41:52.616Z,100438.63
2024-03-05T11:44:19.459Z,100435.00
2024-03-05T11:46:46.483Z,100426.59
2024-03-05T11:49:13.394Z,100422.28
2024-03-05T11:51:40.186Z,100412.22
2024-03-05T11:54:06.999Z,100411.88
2024-03-05T11:56:33.844Z,100413.06
2024-03-05T11:59:00.732Z,100416.94
2024-03-05T12:01:27.614Z,100405.19
2024-03-05T12:03:54.483Z,100401.53
2024-03-05T12:06:21.336Z,100405.56
2024-03-05T12:08:48.179Z,100394.53
2024-03-05T12:11:15.163Z,100397.69
2024-03-05T12:13:42.060Z,100393.16
2024-03-05T12:16:08.878Z,100401.25
2024-03-05T12:18:35.676Z,100398.94
2024-03-05T12:21:02.513Z,100402.25
2024-03-05T12:23:41.267Z,100394.94
2024-03-05T12:26:10.086Z,100394.59
2024-03-05T12:28:37.026Z,100384.38
2024-03-05T12:31:03.864Z,100383.72
2024-03-05T12:33:30.657Z,100369.00
2024-03-05T12:35:57.442Z,100366.66
2024-03-05T12:38:24.332Z,100375.19
2024-03-05T12:40:51.200Z,100364.84
2024-03-05T12:43:18.024Z,100365.16
2024-03-05T12:45:44.866Z,100341.72
2024-03-05T12:48:11.692Z,100337.34
2024-03-05T12:50:38.532Z,100331.69
2024-03-05T12:53:05.422Z,100330.16
2024-03-05T12:55:32.261Z,100321.63
2024-03-05T12:57:59.071Z,100322.28
2024-03-05T13:00:25.871Z,100320.09
2024-03-05T13:02:52.688Z,100319.59
2024-03-05T13:05:19.601Z,100308.88
2024-03-05T13:07:46.513Z,100314.06
2024-03-05T13:10:13.336Z,100307.22
2024-03-05T13:12:40.486Z,100306.56
2024-03-05T13:15:07.693Z,100312.75
2024-03-05T13:17:34.572Z,100335.19
2024-03-05T13:20:01.513Z,100351.75
2024-03-05T13:22:28.335Z,100362.66
2024-03-05T13:24:55.182Z,100355.09
2024-03-05T13:27:22.011Z,100345.34
2024-03-05T13:29:53.380Z,100355.41
2024-03-05T13:32:20.403Z,100348.53
2024-03-05T13:34:47.283Z,100348.38
2024-03-05T13:37:14.118Z,100350.72
2024-03-05T13:39:40.940Z,100340.31
2024-03-05T13:42:07.772Z,100340.97
2024-03-05T13:44:34.637Z,100339.31
2024-03-05T13:47:01.483Z,100330.25
2024-03-05T13:49:28.339Z,100327.97
2024-03-05T13:51:55.299Z,100325.63
2024-03-05T13:54:22.595Z,100329.28
2024-03-05T13:56:49.718Z,100322.59
2024-03-05T13:59:16.555Z,100314.03
2024-03-05T14:01:43.494Z,100305.47
2024-03-05T14:04:10.392Z,100296.25
2024-03-05T14:06:37.187Z,100308.13
2024-03-05T14:09:04.029Z,100310.13
2024-03-05T14:11:30.973Z,100312.81
2024-03-05T14:13:57.834Z,100315.13
2024-03-05T14:16:24.800Z,100317.50
2024-03-05T14:18:51.673Z,100304.38
2024-03-05T14:21:18.484Z,100299.00
2024-03-05T14:23:45.315Z,100293.66
2024-03-05T14:26:12.169Z,100284.59
2024-03-05T14:28:39.033Z,100292.34
2024-03-05T14:31:05.869Z,100282.31
2024-03-05T14:33:32.767Z,100297.53
2024-03-05T14:35:59.586Z,100317.69
2024-03-05T14:38:26.405Z,100325.75
2024-03-05T14:40:53.253Z,100340.16
2024-03-05T14:43:20.115Z,100346.34
2024-03-05T14:45:46.977Z,100347.03
2024-03-05T14:48:13.812Z,100345.66
2024-03-05T14:50:40.641Z,100345.66
2024-03-05T14:53:07.655Z,100350.00
2024-03-05T14:55:34.574Z,100356.06
2024-03-05T14:58:01.430Z,100362.25
2024-03-05T15:00:28.225Z,100360.91
2024-03-05T15:02:55.121Z,100364.06
2024-03-05T15:05:22.101Z,100356.81
2024-03-05T15:07:49.064Z,100352.31
2024-03-05T15:10:15.915Z,100344.56
2024-03-05T15:12:42.733Z,100353.28
2024-03-05T15:15:09.612Z,100348.25
2024-03-05T15:17:36.457Z,100353.97
2024-03-05T15:20:03.448Z,100348.94
2024-03-05T15:22:30.311Z,100345.28
2024-03-05T15:24:57.160Z,100346.22
2024-03-05T15:27:24.193Z,100341.34
2024-03-05T15:29:51.069Z,100339.69
2024-03-05T15:32:17.945Z,100337.38
2024-03-05T15:34:44.827Z,100327.28
2024-03-05T15:37:11.634Z,100331.84
2024-03-05T15:39:38.520Z,100328.16
2024-03-05T15:42:05.362Z,100330.63
2024-03-05T15:44:32.187Z,100322.78
2024-03-05T15:46:59.011Z,100320.44
2024-03-05T15:49:25.840Z,100320.63
2024-03-05T15:51:52.722Z,100321.63
2024-03-05T15:54:19.530Z,100324.47
2024-03-05T15:56:46.541Z,100327.16
2024-03-05T15:59:13.669Z,100323.47
2024-03-05T16:01:40.658Z,100320.78
2024-03-05T16:04:16.016Z,100327.16
2024-03-05T16:06:54.341Z,100335.03
2024-03-05T16:09:21.186Z,100339.56
2024-03-05T16:11:48.157Z,100340.88
2024-03-05T16:14:15.045Z,100341.03
2024-03-05T16:16:41.890Z,100331.81
2024-03-05T16:19:08.766Z,100336.47
2024-03-05T16:21:35.575Z,100332.31
2024-03-05T16:24:02.374Z,100338.50
2024-03-05T16:26:29.161Z,100336.34
2024-03-05T16:28:56.079Z,100336.22
2024-03-05T16:31:23.065Z,100339.91
2024-03-05T16:33:49.984Z,100333.22
2024-03-05T16:36:16.963Z,100326.19
2024-03-05T16:38:43.934Z,100336.25
2024-03-05T16:41:10.887Z,100337.25
2024-03-05T16:43:37.757Z,100335.56
2024-03-05T16:46:04.568Z,100331.53
2024-03-05T16:48:31.390Z,100332.72
2024-03-05T16:50:58.185Z,100327.53
2024-03-05T16:53:25.106Z,100332.59
2024-03-05T16:55:51.930Z,100339.97
2024-03-05T16:58:19.745Z,100336.59
2024-03-05T17:00:46.886Z,100347.31
2024-03-05T17:03:13.692Z,100345.03
2024-03-05T17:05:40.520Z,100342.19
2024-03-05T17:08:07.506Z,100346.72
2024-03-05T17:10:34.550Z,100357.28
2024-03-05T17:13:01.362Z,100365.47
2024-03-05T17:15:28.234Z,100378.03
2024-03-05T17:18:00.285Z,100395.59
2024-03-05T17:20:31.335Z,100395.31
2024-03-05T17:22:58.242Z,100390.91
2024-03-05T17:25:25.129Z,100390.91
2024-03-05T17:27:51.959Z,100391.25
2024-03-05T17:30:18.780Z,100391.25
2024-03-05T17:32:45.639Z,100393.25
2024-03-05T17:35:12.528Z,100398.94
2024-03-05T17:37:39.391Z,100390.59
2024-03-05T17:40:06.217Z,100400.66
2024-03-05T17:42:33.005Z,100400.97
2024-03-05T17:44:59.796Z,100407.34
2024-03-05T17:47:26.611Z,100405.66
2024-03-05T17:49:53.465Z,100411.34
2024-03-05T17:52:20.310Z,100405.31
2024-03-05T17:54:47.140Z,100406.66
2024-03-05T17:57:13.946Z,100403.66
2024-03-05T17:59:40.762Z,100403.31
2024-03-05T18:02:07.645Z,100412.84
2024-03-05T18:04:34.527Z,100421.88
2024-03-05T18:07:01.393Z,100409.00
2024-03-05T18:09:28.226Z,100418.03
2024-03-05T18:11:55.089Z,100413.03
2024-03-05T18:14:21.951Z,100411.34
2024-03-05T18:16:48.813Z,100425.72
2024-03-05T18:19:15.608Z,100431.78
2024-03-05T18:21:42.414Z,100425.56
2024-03-05T18:24:09.249Z,100427.59
2024-03-05T18:26:36.065Z,100434.59
2024-03-05T18:29:02.916Z,100441.78
2024-03-05T18:31:29.822Z,100437.78
2024-03-05T18:33:56.721Z,100441.78
2024-03-05T18:36:23.543Z,100440.75
2024-03-05T18:38:50.332Z,100441.09
2024-03-05T18:41:17.142Z,100441.75
2024-03-05T18:43:44.005Z,100441.44
2024-03-05T18:46:10.959Z,100445.78
2024-03-05T18:48:37.928Z,100448.78
2024-03-05T18:51:04.920Z,100449.13
2024-03-05T18:53:39.478Z,100452.47
2024-03-05T18:56:10.619Z,100447.09
2024-03-05T18:58:37.601Z,100449.41
2024-03-05T19:01:04.564Z,100447.44
2024-03-05T19:03:31.426Z,100444.06
2024-03-05T19:05:58.224Z,100440.69
2024-03-05T19:08:25.171Z,100438.72
2024-03-05T19:10:52.207Z,100430.38
2024-03-05T19:13:19.044Z,100435.66
2024-03-05T19:15:45.895Z,100432.31
2024-03-05T19:18:15.890Z,100437.63
2024-03-05T19:20:43.144Z,100442.94
2024-03-05T19:23:10.121Z,100444.13
2024-03-05T19:25:37.278Z,100451.16
2024-03-05T19:28:04.167Z,100446.13
2024-03-05T19:30:30.980Z,100436.91
2024-03-05T19:32:57.947Z,100437.69
2024-03-05T19:35:24.831Z,100440.00
2024-03-05T19:37:51.771Z,100435.84
2024-03-05T19:40:19.120Z,100433.66
2024-03-05T19:42:46.412Z,100434.53
2024-03-05T19:45:13.586Z,100431.66
2024-03-05T19:47:40.733Z,100432.72
2024-03-05T19:50:08.005Z,100437.41
2024-03-05T19:52:35.058Z,100431.66
2024-03-05T19:55:02.040Z,100435.84
2024-03-05T19:57:28.855Z,100433.06
2024-03-05T19:59:56.889Z,100434.72
2024-03-05T20:02:25.250Z,100437.25
2024-03-05T20:04:52.261Z,100438.06
2024-03-05T20:07:19.285Z,100434.09
2024-03-05T20:09:46.089Z,100426.88
2024-03-05T20:12:13.265Z,100419.34
2024-03-05T20:14:40.246Z,100426.91
2024-03-05T20:17:07.287Z,100429.75
2024-03-05T20:19:34.192Z,100423.53
2024-03-05T20:22:00.993Z,100423.38
2024-03-05T20:24:27.848Z,100412.66
2024-03-05T20:26:54.654Z,100412.66
2024-03-05T20:29:21.481Z,100413.94
2024-03-05T20:31:48.394Z,100416.78
2024-03-05T20:34:15.287Z,100418.59
2024-03-05T20:36:42.162Z,100429.31
2024-03-05T20:39:08.988Z,100425.97
2024-03-05T20:41:35.875Z,100429.38
2024-03-05T20:44:02.852Z,100422.66
2024-03-05T20:46:29.716Z,100422.66
2024-03-05T20:48:56.515Z,100430.69
2024-03-05T20:51:23.349Z,100424.13
2024-03-05T20:53:50.130Z,100423.47
2024-03-05T20:56:17.039Z,100415.59
2024-03-05T20:58:43.928Z,100423.31
2024-03-05T21:01:10.923Z,100419.63
2024-03-05T21:03:37.782Z,100419.25
2024-03-05T21:06:04.568Z,100412.59
2024-03-05T21:08:31.420Z,100415.44
2024-03-05T21:10:58.402Z,100408.22
2024-03-05T21:13:25.302Z,100406.53
2024-03-05T21:15:52.112Z,100414.53
2024-03-05T21:18:19.010Z,100407.22
2024-03-05T21:20:45.892Z,100405.66
2024-03-05T21:23:16.069Z,100412.16
2024-03-05T21:25:56.465Z,100416.66
2024-03-05T21:28:31.601Z,100414.19
2024-03-05T21:30:58.460Z,100412.66
2024-03-05T21:33:25.325Z,100417.34
2024-03-05T21:35:52.122Z,100418.50
2024-03-05T21:38:18.944Z,100418.50
2024-03-05T21:40:45.823Z,100419.13
2024-03-05T21:43:12.746Z,100428.84
2024-03-05T21:45:39.572Z,100426.66
2024-03-05T21:48:06.398Z,100423.50
2024-03-05T21:50:33.303Z,100424.16
2024-03-05T21:53:00.146Z,100437.53
2024-03-05T21:55:26.937Z,100434.16
2024-03-05T21:57:53.726Z,100440.53
2024-03-05T22:00:20.514Z,100439.84
2024-03-05T22:02:47.366Z,100437.47
2024-03-05T22:05:14.282Z,100436.31
2024-03-05T22:07:41.185Z,100433.72
2024-03-05T22:10:08.025Z,100434.34
2024-03-05T22:12:34.834Z,100429.97
2024-03-05T22:15:03.287Z,100423.25
2024-03-05T22:17:30.181Z,100423.88
2024-03-05T22:19:57.092Z,100414.56
2024-03-05T22:22:23.929Z,100417.19
2024-03-05T22:24:50.774Z,100418.19
2024-03-05T22:27:17.583Z,100414.66
2024-03-05T22:29:44.417Z,100404.31
2024-03-05T22:32:11.277Z,100407.44
2024-03-05T22:34:38.226Z,100398.44
2024-03-05T22:37:05.077Z,100402.09
2024-03-05T22:39:31.936Z,100407.75
2024-03-05T22:41:58.774Z,100405.13
2024-03-05T22:44:25.554Z,100400.44
2024-03-05T22:46:52.375Z,100393.81
2024-03-05T22:49:19.174Z,100397.47
2024-03-05T22:51:46.005Z,100394.13
2024-03-05T22:54:12.800Z,100400.28
2024-03-05T22:56:39.625Z,100397.47
2024-03-05T22:59:06.560Z,100396.47
2024-03-05T23:01:33.504Z,100403.13
2024-03-05T23:04:00.331Z,100390.75
2024-03-05T23:06:27.153Z,100399.78
2024-03-05T23:08:53.981Z,100403.44
2024-03-05T23:11:20.843Z,100391.41
2024-03-05T23:13:47.739Z,100384.38
2024-03-05T23:16:14.747Z,100393.09
2024-03-05T23:18:41.590Z,100392.09
2024-03-05T23:21:08.406Z,100390.56
2024-03-05T23:23:35.207Z,100391.19
2024-03-05T23:26:02.098Z,100386.69
2024-03-05T23:28:28.957Z,100395.38
2024-03-05T23:30:55.785Z,100394.75
2024-03-05T23:33:22.712Z,100388.88
2024-03-05T23:35:49.539Z,100389.00
2024-03-05T23:38:16.350Z,100392.03
2024-03-05T23:40:43.175Z,100391.72
2024-03-05T23:43:09.983Z,100391.72
2024-03-05T23:45:36.803Z,100388.56
2024-03-05T23:48:06.112Z,100395.75
2024-03-05T23:50:34.931Z,100394.84
2024-03-05T23:53:01.821Z,100394.03
2024-03-05T23:55:28.667Z,100394.31
2024-03-05T23:57:55.493Z,100395.28
